Terminal Aerodrome Forecast
Issued by NWS Cleveland, OH

Home | Current Version | Previous Version | Text Only | Print | Product List | Glossary On
Versions: 1 2 3 4 5 6 7 8 9 10 11 12 13 14 15 16 17 18 19 20 21 22 23 24 25 26 27 28
000
FTUS41 KCLE 310800 AAA
TAFCLE
TAF AMD
KCLE 310852Z 3109/0112 18004KT P6SM SCT150
     FM311500 22010KT P6SM BKN100
     FM312300 23010KT P6SM OVC070
     FM010500 22008KT P6SM OVC035
     FM010900 21008KT 3SM -SN OVC025=

USA.gov is the U.S. government's official web portal to all federal, state and local government web resources and services.